Aérodrome :
LOGIN :

S'inscrire | Disclaimer

   EN    FR    IT 

 










Légende :    VFR   VFR Marginal   IFR   IFR Intensif   IFR Très Intensif
Visi : 
Plafond : 
>= 8 km
>= 3000ft
5 à 8 km
1000 à 3000 ft
1500m à 5 km
500 à 1000 ft
800 à 1500m
200 à 500 ft
< 800m
< 200 ft
Symboles :   Orages  Brouillard  Fortes neiges  Fortes précipitations  Vent > 20 kt
SIGMETs :   Divers  Orages  Givrage  Turbulence  Onde Orograph.  Cendres Volcan.






- Altitude de l'aérodrome : 15 ft
- Code IATA : BHD


EGAC - George Best Belfast City

DERNIER METAR :
  • 151020Z AUTO 22013KT 9999 NCD 02/01 Q0987

METARs EXPIRÉS :
  • 150950Z AUTO 22011KT 9999 NCD 02/00 Q0986
  • 150920Z AUTO 21014KT 9999 FEW013/// 01/00 Q0986
  • 150850Z AUTO 19011KT 9999 BKN010/// 01/M00 Q0986
  • 150820Z AUTO 19014KT 9999 BKN010/// 01/00 Q0986
  • 150750Z AUTO 19010KT 9999 BKN009/// OVC013/// 01/00 Q0985

TAF TAF EGAC
Valide du 15 à 09h jusqu'au 15 à 18h UTC


150802Z 1509/1518 19012KT 9999 SCT025
PROB40 1509/1510 BKN008
ATIS : +44 02890 935 124



MET'MAP, la Météo Aéronautique d'un coup d'oeil ! - Copyright ORBIFLY Décembre 2007 - Disclaimer

ORBIFLY MET'MAP TEAM :

Programmation & Développement : Alexandra Zaïnal
Sur une idée originale de : Baudouin d'Aumeries
Assistance à la programmation : Marc-Olivier Méhu
Soutien technique & logistique : Manuel Goepfert

Contact : metmap@orbifly.com




SOURCES & CREDITS :

   NOAA